Time;durP1;ratioP1;P1;durP2;ratioP2;P2;SDS_P1;SDS_P2;PMS_P1;PMS_P2;Temp;Humidity;BMP_temperature;BMP_pressure;BME280_temperature;BME280_humidity;BME280_pressure;Samples;Min_cycle;Max_cycle;Signal;HPM_P1;HPM_P2
2023/10/08 00:01:42;;;;;;;3.33;1.13;;;14.90;99.90;;;;;;5096190;28;20458;-83
2023/10/08 00:04:11;;;;;;;2.03;0.80;;;15.00;99.90;;;;;;5095731;28;21005;-83
2023/10/08 00:06:38;;;;;;;3.23;1.20;;;15.00;99.90;;;;;;5095543;28;20437;-83
2023/10/08 00:09:08;;;;;;;2.50;0.90;;;15.00;99.90;;;;;;5096079;28;20452;-83
2023/10/08 00:11:36;;;;;;;3.50;0.80;;;15.00;99.90;;;;;;5096003;28;20450;-83
2023/10/08 00:14:05;;;;;;;2.00;1.00;;;15.10;99.90;;;;;;5095994;28;20876;-83
2023/10/08 00:16:34;;;;;;;2.00;1.10;;;15.10;99.90;;;;;;5095965;28;20448;-83
2023/10/08 00:19:07;;;;;;;2.10;1.10;;;15.10;99.90;;;;;;5095664;28;20432;-83
2023/10/08 00:21:37;;;;;;;2.33;1.50;;;15.00;99.90;;;;;;5095929;28;20439;-83
2023/10/08 00:24:07;;;;;;;8.10;1.53;;;15.10;99.90;;;;;;5095970;28;20525;-82
2023/10/08 00:26:39;;;;;;;1.17;0.83;;;15.10;99.90;;;;;;5095774;28;20482;-82
2023/10/08 00:29:15;;;;;;;2.93;0.90;;;15.10;99.90;;;;;;5095778;28;20433;-83
2023/10/08 00:31:44;;;;;;;3.57;1.20;;;15.10;99.90;;;;;;5095622;28;20458;-83
2023/10/08 00:34:13;;;;;;;1.63;0.70;;;15.10;99.90;;;;;;5095194;28;20501;-83
2023/10/08 00:36:43;;;;;;;1.70;0.67;;;15.10;99.90;;;;;;5095549;28;20455;-83
2023/10/08 00:39:13;;;;;;;2.90;1.00;;;15.10;99.90;;;;;;5095921;28;20444;-83
2023/10/08 00:41:42;;;;;;;3.40;1.27;;;15.10;99.90;;;;;;5094980;28;20976;-83
2023/10/08 00:44:12;;;;;;;1.53;0.67;;;15.00;99.90;;;;;;5095214;28;20525;-83
2023/10/08 00:46:42;;;;;;;2.10;0.80;;;15.00;99.90;;;;;;5095287;28;20434;-83
2023/10/08 00:49:24;;;;;;;4.40;1.57;;;15.30;99.90;;;;;;5096687;28;20432;-83
2023/10/08 00:52:03;;;;;;;1.07;0.80;;;15.00;99.90;;;;;;5095238;28;20800;-83
2023/10/08 00:54:32;;;;;;;1.07;0.97;;;15.50;99.90;;;;;;5095332;28;20430;-83
2023/10/08 00:57:04;;;;;;;1.57;1.30;;;15.00;99.90;;;;;;5095651;28;20448;-83
2023/10/08 00:59:36;;;;;;;1.37;0.90;;;15.00;99.90;;;;;;5095813;28;20463;-83
2023/10/08 01:02:08;;;;;;;2.43;1.10;;;15.00;99.90;;;;;;5095146;28;20460;-83
2023/10/08 01:04:37;;;;;;;2.20;0.90;;;15.40;99.90;;;;;;5094811;28;20454;-83
2023/10/08 01:07:13;;;;;;;1.00;0.70;;;15.10;99.90;;;;;;5094809;28;20452;-84
2023/10/08 01:09:42;;;;;;;3.23;0.60;;;15.10;99.90;;;;;;5095208;28;20451;-83
2023/10/08 01:12:13;;;;;;;1.83;0.90;;;15.10;99.90;;;;;;5095008;28;20531;-83
2023/10/08 01:14:42;;;;;;;3.90;0.90;;;15.00;99.90;;;;;;5094770;28;20458;-84
2023/10/08 01:17:09;;;;;;;1.03;0.70;;;15.00;99.90;;;;;;5093947;28;20458;-83
2023/10/08 01:19:40;;;;;;;3.07;1.23;;;15.10;99.90;;;;;;5094731;28;20547;-83
2023/10/08 01:22:10;;;;;;;2.63;0.90;;;15.10;99.90;;;;;;5094823;28;20524;-83
2023/10/08 01:24:37;;;;;;;1.27;0.93;;;15.10;99.90;;;;;;5094889;28;20456;-83
2023/10/08 01:27:04;;;;;;;2.20;0.70;;;15.10;99.90;;;;;;5094761;28;20439;-83
2023/10/08 01:29:31;;;;;;;3.73;1.37;;;15.10;99.90;;;;;;5094521;28;20448;-83
2023/10/08 01:32:01;;;;;;;1.10;1.00;;;15.10;99.90;;;;;;5094346;28;20466;-83
2023/10/08 01:34:30;;;;;;;3.40;1.17;;;15.10;99.90;;;;;;5094436;28;20440;-83
2023/10/08 01:37:01;;;;;;;1.63;1.40;;;15.10;99.90;;;;;;5094391;28;20436;-83
2023/10/08 01:39:32;;;;;;;0.93;0.50;;;15.00;99.90;;;;;;5094384;28;20429;-83
2023/10/08 01:41:58;;;;;;;3.20;0.90;;;15.00;99.90;;;;;;5093974;28;20479;-83
2023/10/08 01:44:25;;;;;;;1.20;0.80;;;14.90;99.90;;;;;;5094156;28;20448;-83
2023/10/08 01:46:52;;;;;;;1.63;1.10;;;14.90;99.90;;;;;;5093833;28;21000;-83
2023/10/08 01:49:23;;;;;;;2.93;1.17;;;15.00;99.90;;;;;;5094387;28;20448;-83
2023/10/08 01:51:50;;;;;;;1.63;0.70;;;15.00;99.90;;;;;;5094182;28;20483;-83
2023/10/08 01:54:21;;;;;;;1.47;1.03;;;14.90;99.90;;;;;;5094107;28;20459;-83
2023/10/08 01:56:50;;;;;;;2.90;1.40;;;15.00;99.90;;;;;;5093718;28;20432;-83
2023/10/08 01:59:16;;;;;;;3.77;1.20;;;15.00;99.90;;;;;;5094122;28;20448;-83
2023/10/08 02:01:45;;;;;;;1.80;0.90;;;14.90;99.90;;;;;;5093982;28;20444;-83
2023/10/08 02:04:12;;;;;;;2.13;1.30;;;14.90;99.90;;;;;;5094132;28;20472;-83
2023/10/08 02:06:40;;;;;;;1.60;0.60;;;14.90;99.90;;;;;;5093914;28;20533;-83
2023/10/08 02:09:13;;;;;;;2.73;0.80;;;15.00;99.90;;;;;;5093898;28;20440;-83
2023/10/08 02:11:49;;;;;;;3.10;0.80;;;14.90;99.90;;;;;;5093481;28;20896;-83
2023/10/08 02:14:18;;;;;;;1.37;0.90;;;15.00;99.90;;;;;;5093923;28;20875;-83
2023/10/08 02:16:45;;;;;;;2.10;0.60;;;15.00;99.90;;;;;;5093754;28;20527;-83
2023/10/08 02:19:12;;;;;;;1.27;0.97;;;14.90;99.90;;;;;;5093844;28;20448;-83
2023/10/08 02:21:41;;;;;;;3.97;0.87;;;14.90;99.90;;;;;;5093378;28;20455;-83
2023/10/08 02:24:11;;;;;;;2.10;0.63;;;14.90;99.90;;;;;;5093605;28;20910;-83
2023/10/08 02:26:37;;;;;;;5.33;1.13;;;15.00;99.90;;;;;;5093531;28;20486;-83
2023/10/08 02:29:10;;;;;;;1.60;0.80;;;14.90;99.90;;;;;;5093379;28;20463;-83
2023/10/08 02:31:38;;;;;;;2.50;0.70;;;14.90;99.90;;;;;;5093224;28;20802;-83
2023/10/08 02:34:07;;;;;;;5.10;1.07;;;14.90;99.90;;;;;;5093139;28;20984;-83
2023/10/08 02:36:36;;;;;;;4.30;1.23;;;14.80;99.90;;;;;;5093460;28;20470;-83
2023/10/08 02:39:06;;;;;;;4.73;1.60;;;14.80;99.90;;;;;;5093424;28;20453;-83
2023/10/08 02:41:33;;;;;;;3.73;1.40;;;14.70;99.90;;;;;;5093049;28;20479;-83
2023/10/08 02:44:00;;;;;;;7.23;1.37;;;14.60;99.90;;;;;;5093559;28;20467;-83
2023/10/08 02:46:26;;;;;;;2.17;0.97;;;14.60;99.90;;;;;;5093336;28;20508;-83
2023/10/08 02:48:54;;;;;;;3.10;1.13;;;14.50;99.90;;;;;;5092983;28;20963;-83
2023/10/08 02:51:21;;;;;;;1.27;0.93;;;14.50;99.90;;;;;;5093313;28;20443;-83
2023/10/08 02:53:50;;;;;;;1.90;0.80;;;14.60;99.90;;;;;;5093279;28;20459;-83
2023/10/08 02:56:18;;;;;;;2.10;1.07;;;14.70;99.90;;;;;;5092947;28;21008;-83
2023/10/08 02:58:47;;;;;;;3.27;1.40;;;14.20;99.90;;;;;;5092908;28;20932;-83
2023/10/08 03:01:14;;;;;;;3.70;1.07;;;14.20;99.90;;;;;;5093259;28;20515;-83
2023/10/08 03:03:41;;;;;;;2.70;1.07;;;14.20;99.90;;;;;;5093147;28;20525;-83
2023/10/08 03:06:11;;;;;;;2.47;1.03;;;14.10;99.90;;;;;;5093286;28;20471;-83
2023/10/08 03:08:41;;;;;;;2.00;1.03;;;14.10;99.90;;;;;;5093246;28;20439;-83
2023/10/08 03:11:16;;;;;;;2.67;1.60;;;13.90;99.90;;;;;;5092800;28;20971;-83
2023/10/08 03:13:46;;;;;;;2.67;1.10;;;13.90;99.90;;;;;;5092759;28;20558;-83
2023/10/08 03:16:13;;;;;;;1.30;0.87;;;13.90;99.90;;;;;;5093100;28;20428;-83
2023/10/08 03:18:43;;;;;;;4.20;1.30;;;13.90;99.90;;;;;;5093065;28;20812;-83
2023/10/08 03:21:20;;;;;;;3.07;1.27;;;13.80;99.90;;;;;;5093036;28;20486;-83
2023/10/08 03:23:48;;;;;;;1.70;0.70;;;13.80;99.90;;;;;;5093312;28;20463;-83
2023/10/08 03:26:32;;;;;;;1.90;0.80;;;13.70;99.90;;;;;;5092868;28;20475;-83
2023/10/08 03:29:05;;;;;;;3.30;1.10;;;13.70;99.90;;;;;;5093290;28;20505;-83
2023/10/08 03:31:49;;;;;;;2.00;0.50;;;13.70;99.90;;;;;;5092982;28;20523;-83
2023/10/08 03:34:18;;;;;;;2.83;0.80;;;13.70;99.90;;;;;;5092959;28;20428;-83
2023/10/08 03:36:49;;;;;;;2.63;1.40;;;13.70;99.90;;;;;;5092966;28;20448;-83
2023/10/08 03:39:18;;;;;;;1.63;0.70;;;13.50;99.90;;;;;;5092681;28;20947;-83
2023/10/08 03:41:59;;;;;;;1.00;0.70;;;13.60;99.90;;;;;;5096304;28;20479;-83
2023/10/08 03:44:29;;;;;;;1.10;0.77;;;13.60;99.90;;;;;;5096711;28;20791;-83
2023/10/08 03:46:57;;;;;;;1.17;0.87;;;13.60;99.90;;;;;;5096575;28;20471;-83
2023/10/08 03:49:26;;;;;;;1.33;1.23;;;13.60;99.90;;;;;;5096511;28;20450;-83
2023/10/08 03:51:57;;;;;;;2.00;0.63;;;13.60;99.90;;;;;;5096343;28;20474;-83
2023/10/08 03:54:29;;;;;;;1.20;0.90;;;13.60;99.90;;;;;;5096451;28;20428;-83
2023/10/08 03:56:57;;;;;;;2.00;0.80;;;13.50;99.90;;;;;;5096080;28;20800;-83
2023/10/08 03:59:31;;;;;;;1.57;0.80;;;13.60;99.90;;;;;;5096233;28;20780;-83
2023/10/08 04:02:09;;;;;;;1.83;1.27;;;13.50;99.90;;;;;;5096222;28;20424;-83
2023/10/08 04:04:48;;;;;;;4.03;1.50;;;13.50;99.90;;;;;;5095998;28;20428;-83
2023/10/08 04:07:28;;;;;;;1.70;0.60;;;13.50;99.90;;;;;;5096085;28;20463;-83
2023/10/08 04:10:05;;;;;;;2.60;1.47;;;13.50;99.90;;;;;;5096201;28;20526;-83
2023/10/08 04:12:34;;;;;;;3.80;0.90;;;13.50;99.90;;;;;;5096283;28;20482;-83
2023/10/08 04:15:01;;;;;;;2.30;1.23;;;13.50;99.90;;;;;;5096236;28;20493;-83
2023/10/08 04:17:28;;;;;;;2.90;1.30;;;13.50;99.90;;;;;;5095980;28;20443;-83
2023/10/08 04:19:58;;;;;;;1.50;0.70;;;13.50;99.90;;;;;;5095902;28;20472;-83
2023/10/08 04:22:26;;;;;;;7.93;1.23;;;13.50;99.90;;;;;;5095791;28;20467;-83
2023/10/08 04:24:53;;;;;;;4.00;1.00;;;13.50;99.90;;;;;;5095931;28;20466;-83
2023/10/08 04:27:22;;;;;;;5.47;0.70;;;13.50;99.90;;;;;;5095712;28;20532;-83
2023/10/08 04:29:49;;;;;;;4.07;0.93;;;13.40;99.90;;;;;;5095774;28;20448;-83
2023/10/08 04:32:24;;;;;;;2.03;0.87;;;13.40;99.90;;;;;;5095726;28;20468;-83
2023/10/08 04:34:52;;;;;;;1.33;0.60;;;13.40;99.90;;;;;;5095789;28;20519;-83
2023/10/08 04:37:20;;;;;;;1.63;0.80;;;13.40;99.90;;;;;;5095285;28;20440;-83
2023/10/08 04:39:57;;;;;;;2.47;0.70;;;13.50;99.90;;;;;;5095466;28;20436;-83
2023/10/08 04:42:26;;;;;;;2.67;0.60;;;13.50;99.90;;;;;;5095090;28;20518;-83
2023/10/08 04:44:54;;;;;;;1.70;0.70;;;13.60;99.90;;;;;;5095475;28;20960;-82
2023/10/08 04:47:31;;;;;;;4.50;1.00;;;13.60;99.90;;;;;;5095328;28;20484;-83
2023/10/08 04:49:58;;;;;;;1.23;1.00;;;13.70;99.90;;;;;;5095422;28;20478;-83
2023/10/08 04:52:27;;;;;;;4.90;0.83;;;13.70;99.90;;;;;;5095177;28;20472;-83
2023/10/08 04:54:56;;;;;;;2.40;1.00;;;13.70;99.90;;;;;;5095241;28;20444;-83
2023/10/08 04:57:25;;;;;;;1.00;0.80;;;13.80;99.90;;;;;;5095209;28;20876;-83
2023/10/08 04:59:57;;;;;;;1.43;0.90;;;13.80;99.90;;;;;;5095046;28;20484;-83
2023/10/08 05:02:34;;;;;;;2.50;0.90;;;13.90;99.90;;;;;;5094657;28;20499;-83
2023/10/08 05:11:00;;;;;;;1.07;0.90;;;14.00;99.90;;;;;;5095121;28;20409;-83
2023/10/08 05:13:32;;;;;;;1.53;0.60;;;14.00;99.90;;;;;;5094819;28;20468;-83
2023/10/08 05:16:11;;;;;;;2.10;1.33;;;14.00;99.90;;;;;;5095070;28;20435;-82
2023/10/08 05:19:14;;;;;;;3.90;1.03;;;14.10;99.90;;;;;;5094839;28;20467;-83
2023/10/08 05:22:01;;;;;;;2.43;0.87;;;14.10;99.90;;;;;;5094764;28;20428;-83
2023/10/08 05:24:37;;;;;;;12.63;1.77;;;14.10;99.90;;;;;;5094497;28;20432;-83
2023/10/08 05:30:11;;;;;;;4.63;1.43;;;14.10;99.90;;;;;;5094678;28;20501;-83
2023/10/08 05:33:05;;;;;;;2.03;0.70;;;14.10;99.90;;;;;;5094245;28;20552;-83
2023/10/08 05:35:48;;;;;;;3.07;0.90;;;14.10;99.90;;;;;;5094197;28;20550;-83
2023/10/08 05:38:21;;;;;;;2.40;0.70;;;14.10;99.90;;;;;;5098248;28;20528;-83
2023/10/08 05:41:27;;;;;;;1.10;0.70;;;14.10;99.90;;;;;;5094660;28;20439;-83
2023/10/08 05:46:51;;;;;;;6.33;0.83;;;14.10;99.90;;;;;;5093857;28;21084;-83
2023/10/08 05:52:24;;;;;;;1.10;0.80;;;14.20;99.90;;;;;;5091223;28;20476;-83
2023/10/08 05:57:46;;;;;;;0.93;0.80;;;14.30;99.90;;;;;;5094160;28;20773;-83
2023/10/08 06:03:09;;;;;;;0.80;0.50;;;14.10;99.90;;;;;;5072038;28;20466;-83
2023/10/08 06:05:46;;;;;;;2.60;0.90;;;14.10;99.90;;;;;;5093683;28;20454;-83
2023/10/08 06:08:13;;;;;;;1.50;0.97;;;14.20;99.90;;;;;;5093850;28;20475;-83
2023/10/08 06:10:56;;;;;;;1.33;0.90;;;14.20;99.90;;;;;;5093643;28;20447;-83
2023/10/08 06:13:29;;;;;;;2.00;0.80;;;14.20;99.90;;;;;;5093788;28;20464;-83
2023/10/08 06:16:08;;;;;;;4.67;1.07;;;14.30;99.90;;;;;;5093491;28;20902;-83
2023/10/08 06:18:34;;;;;;;1.10;1.00;;;14.30;99.90;;;;;;5093770;28;20436;-83
2023/10/08 06:21:08;;;;;;;1.60;0.70;;;14.30;99.90;;;;;;5093363;28;20466;-83
2023/10/08 06:23:35;;;;;;;1.43;0.90;;;14.30;99.90;;;;;;5093586;28;20464;-83
2023/10/08 06:26:13;;;;;;;2.83;1.20;;;14.40;99.90;;;;;;5093188;28;20448;-83
2023/10/08 06:28:43;;;;;;;1.77;0.90;;;14.30;99.90;;;;;;5093631;28;20432;-83
2023/10/08 06:31:16;;;;;;;1.60;0.90;;;14.40;99.90;;;;;;5093269;28;20936;-83
2023/10/08 06:33:43;;;;;;;3.33;1.10;;;14.50;99.90;;;;;;5093132;28;20460;-83
2023/10/08 06:36:15;;;;;;;1.30;1.07;;;14.50;99.90;;;;;;5093518;28;20498;-83
2023/10/08 06:38:43;;;;;;;0.87;0.70;;;14.50;99.90;;;;;;5093463;28;20434;-83
2023/10/08 06:41:15;;;;;;;5.03;1.20;;;14.80;99.90;;;;;;5093219;28;20444;-83
2023/10/08 06:43:46;;;;;;;3.70;0.83;;;14.60;99.90;;;;;;5093376;28;20456;-83
2023/10/08 06:46:21;;;;;;;4.10;0.70;;;14.60;99.90;;;;;;5093108;28;20435;-82
2023/10/08 06:48:50;;;;;;;1.83;0.80;;;14.50;99.90;;;;;;5093830;28;20439;-83
2023/10/08 06:51:18;;;;;;;1.97;1.00;;;14.70;99.90;;;;;;5093039;28;20432;-82
2023/10/08 06:53:49;;;;;;;1.67;0.63;;;14.70;99.90;;;;;;5093288;28;20880;-84
2023/10/08 06:56:18;;;;;;;1.10;0.60;;;14.70;99.90;;;;;;5093318;28;20425;-85
2023/10/08 06:58:48;;;;;;;2.40;0.93;;;14.70;99.90;;;;;;5093285;28;20455;-84
2023/10/08 07:01:21;;;;;;;2.47;0.60;;;14.70;99.90;;;;;;5092987;28;20458;-85
2023/10/08 07:03:49;;;;;;;0.70;0.67;;;14.80;99.90;;;;;;5093272;28;20806;-84
2023/10/08 07:06:25;;;;;;;3.03;1.23;;;14.90;99.90;;;;;;5093098;28;20490;-84
2023/10/08 07:08:54;;;;;;;1.83;0.90;;;15.00;99.90;;;;;;5093208;28;20510;-84
2023/10/08 07:11:22;;;;;;;4.87;1.17;;;15.10;99.90;;;;;;5093182;28;20502;-84
2023/10/08 07:13:50;;;;;;;1.97;1.07;;;15.20;99.90;;;;;;5093121;28;20467;-84
2023/10/08 07:16:20;;;;;;;2.43;1.20;;;15.30;99.90;;;;;;5095794;28;20436;-84
2023/10/08 07:18:52;;;;;;;1.43;0.80;;;15.30;99.90;;;;;;5097177;28;20527;-85
2023/10/08 07:21:23;;;;;;;2.53;0.80;;;15.20;99.90;;;;;;5097170;28;20432;-84
2023/10/08 07:23:56;;;;;;;3.60;1.00;;;15.20;99.90;;;;;;5097010;28;20875;-84
2023/10/08 07:26:25;;;;;;;0.70;0.60;;;15.20;99.90;;;;;;5097324;28;20440;-84
2023/10/08 07:28:52;;;;;;;2.00;0.90;;;15.30;99.90;;;;;;5096571;28;20478;-84
2023/10/08 07:31:23;;;;;;;0.90;0.60;;;15.30;99.90;;;;;;5096839;28;20450;-83
2023/10/08 07:33:56;;;;;;;4.87;1.30;;;15.40;99.90;;;;;;5096773;28;20510;-83
2023/10/08 07:36:23;;;;;;;2.20;1.07;;;15.50;99.90;;;;;;5096877;28;20428;-84
2023/10/08 07:38:50;;;;;;;1.23;0.63;;;15.60;99.90;;;;;;5096803;28;20801;-83
2023/10/08 07:41:19;;;;;;;1.33;1.00;;;15.70;99.90;;;;;;5096301;28;21000;-84
2023/10/08 07:43:53;;;;;;;3.53;1.10;;;15.80;99.90;;;;;;5096254;28;20503;-83
2023/10/08 07:46:21;;;;;;;2.60;1.00;;;15.90;99.90;;;;;;5096529;28;20441;-83
2023/10/08 07:48:50;;;;;;;2.10;1.00;;;16.00;99.90;;;;;;5096551;28;20443;-84
2023/10/08 07:51:17;;;;;;;3.43;0.73;;;16.10;99.90;;;;;;5096485;28;20447;-83
2023/10/08 07:53:44;;;;;;;2.57;1.30;;;16.20;99.90;;;;;;5096139;28;20456;-83
2023/10/08 07:56:11;;;;;;;0.70;0.60;;;16.30;99.90;;;;;;5096375;28;20538;-83
2023/10/08 07:58:38;;;;;;;3.73;0.97;;;16.30;99.90;;;;;;5096293;28;20443;-83
2023/10/08 08:01:07;;;;;;;0.87;0.80;;;16.40;99.90;;;;;;5096352;28;20440;-83
2023/10/08 08:03:36;;;;;;;2.20;0.80;;;16.50;99.90;;;;;;5096209;28;20513;-84
2023/10/08 08:06:05;;;;;;;1.43;0.87;;;16.50;99.90;;;;;;5096002;28;20940;-83
2023/10/08 08:08:33;;;;;;;3.47;0.73;;;16.60;99.90;;;;;;5095783;28;21019;-83
2023/10/08 08:11:05;;;;;;;0.50;0.50;;;16.70;99.90;;;;;;5096113;28;20452;-84
2023/10/08 08:13:33;;;;;;;2.27;0.70;;;16.60;99.90;;;;;;5096112;28;20529;-84
2023/10/08 08:16:09;;;;;;;2.43;0.77;;;16.60;99.90;;;;;;5096028;28;20848;-84
2023/10/08 08:18:38;;;;;;;2.20;0.80;;;16.60;99.90;;;;;;5096293;28;20787;-83
2023/10/08 08:21:14;;;;;;;2.10;0.60;;;16.70;99.90;;;;;;5095897;28;20440;-83
2023/10/08 08:23:41;;;;;;;1.03;0.80;;;16.70;99.90;;;;;;5095884;28;20456;-83
2023/10/08 08:26:11;;;;;;;1.60;0.93;;;16.90;99.90;;;;;;5095410;28;20471;-83
2023/10/08 08:28:39;;;;;;;1.93;0.70;;;17.10;99.90;;;;;;5095577;28;20564;-83
2023/10/08 08:31:13;;;;;;;2.30;1.43;;;17.30;99.90;;;;;;5096047;28;20524;-83
2023/10/08 08:33:56;;;;;;;2.63;0.90;;;17.50;99.90;;;;;;5095869;28;20470;-83
2023/10/08 08:36:24;;;;;;;6.70;0.60;;;17.70;99.90;;;;;;5095665;28;20436;-83
2023/10/08 08:38:51;;;;;;;2.20;0.80;;;17.90;99.90;;;;;;5095309;28;20436;-83
2023/10/08 08:41:18;;;;;;;1.40;1.00;;;18.00;99.90;;;;;;5095255;28;20471;-83
2023/10/08 08:43:48;;;;;;;3.97;1.20;;;18.30;99.90;;;;;;5095437;28;20470;-83
2023/10/08 08:46:16;;;;;;;2.00;0.93;;;18.50;99.90;;;;;;5095099;28;20936;-84
2023/10/08 08:48:48;;;;;;;1.40;1.23;;;18.80;99.90;;;;;;5095432;28;20501;-84
2023/10/08 08:51:14;;;;;;;3.13;0.80;;;19.00;99.90;;;;;;5095386;28;20432;-84
2023/10/08 08:53:42;;;;;;;2.03;1.03;;;19.40;99.90;;;;;;5095328;28;20470;-84
2023/10/08 08:56:10;;;;;;;3.63;0.90;;;19.70;99.90;;;;;;5095298;28;20493;-84
2023/10/08 08:58:38;;;;;;;5.13;1.17;;;19.90;99.90;;;;;;5095242;28;20447;-84
2023/10/08 09:01:09;;;;;;;1.23;1.10;;;20.10;99.90;;;;;;5095154;28;20473;-83
2023/10/08 09:03:37;;;;;;;2.57;1.00;;;20.40;99.90;;;;;;5095300;28;20558;-84
2023/10/08 09:06:05;;;;;;;1.33;0.80;;;21.00;99.90;;;;;;5095507;28;20452;-84
2023/10/08 09:08:35;;;;;;;3.07;0.80;;;21.40;99.90;;;;;;5095462;28;20487;-84
2023/10/08 09:11:04;;;;;;;0.70;0.70;;;21.70;99.90;;;;;;5095795;28;20439;-83
2023/10/08 09:13:32;;;;;;;4.13;2.20;;;21.80;99.90;;;;;;5094858;28;20468;-84
2023/10/08 09:16:07;;;;;;;0.80;0.70;;;21.80;99.90;;;;;;5094864;28;20454;-84
2023/10/08 09:18:34;;;;;;;2.87;1.00;;;22.00;99.90;;;;;;5094847;28;20420;-84
2023/10/08 09:21:15;;;;;;;1.20;0.70;;;22.20;99.90;;;;;;5094731;28;20451;-84
2023/10/08 09:23:44;;;;;;;2.90;0.90;;;22.40;99.90;;;;;;5094374;28;21004;-84
2023/10/08 09:26:13;;;;;;;4.37;0.97;;;22.40;99.90;;;;;;5094392;28;20908;-84
2023/10/08 09:28:41;;;;;;;1.43;0.80;;;22.40;99.90;;;;;;5094931;28;20486;-84
2023/10/08 09:31:12;;;;;;;1.33;0.70;;;22.20;99.90;;;;;;5094988;28;20807;-84
2023/10/08 09:33:39;;;;;;;1.53;1.00;;;22.10;99.90;;;;;;5094985;28;20516;-84
2023/10/08 09:36:10;;;;;;;2.83;1.40;;;22.40;99.90;;;;;;5094926;28;20205;-85
2023/10/08 09:38:39;;;;;;;4.00;1.00;;;23.10;99.90;;;;;;5094174;28;20205;-84
2023/10/08 09:41:08;;;;;;;2.17;0.93;;;23.80;99.90;;;;;;5093929;28;20232;-84
2023/10/08 09:43:36;;;;;;;5.05;1.23;;;24.20;99.90;;;;;;5094899;28;20312;-84
2023/10/08 09:46:09;;;;;;;2.97;0.80;;;24.30;99.90;;;;;;5094403;28;20197;-84
2023/10/08 09:48:38;;;;;;;2.10;0.77;;;24.20;99.90;;;;;;5094224;28;20212;-84
2023/10/08 09:51:07;;;;;;;1.00;0.82;;;24.00;99.90;;;;;;5094175;28;20197;-84
2023/10/08 09:53:44;;;;;;;3.83;1.37;;;23.50;99.90;;;;;;5094283;28;20589;-84
2023/10/08 09:56:15;;;;;;;2.93;1.13;;;23.10;99.90;;;;;;5094211;28;20185;-84
2023/10/08 09:58:43;;;;;;;3.90;1.17;;;22.70;99.90;;;;;;5094298;28;20257;-84
2023/10/08 10:01:11;;;;;;;2.20;1.00;;;22.30;99.90;;;;;;5093977;28;20201;-83
2023/10/08 10:03:41;;;;;;;2.57;0.73;;;22.10;99.90;;;;;;5094111;28;20635;-84
2023/10/08 10:06:14;;;;;;;4.73;1.17;;;22.00;99.90;;;;;;5094416;28;20428;-84
2023/10/08 10:08:43;;;;;;;15.00;1.13;;;22.00;99.90;;;;;;5094085;28;20296;-83
2023/10/08 10:11:10;;;;;;;2.70;1.23;;;22.00;99.90;;;;;;5094215;28;20197;-83
2023/10/08 10:13:40;;;;;;;3.50;0.90;;;22.00;99.90;;;;;;5093790;28;20312;-84
2023/10/08 10:16:08;;;;;;;1.17;0.77;;;22.00;99.90;;;;;;5093877;28;20181;-83
2023/10/08 10:18:35;;;;;;;1.53;1.10;;;22.00;99.90;;;;;;5093791;28;20193;-84
2023/10/08 10:21:26;;;;;;;3.40;1.10;;;21.90;99.90;;;;;;5093700;28;20209;-83
2023/10/08 10:23:54;;;;;;;1.47;0.90;;;21.90;99.90;;;;;;5094276;28;20972;-83
2023/10/08 10:26:27;;;;;;;1.97;1.20;;;21.80;99.90;;;;;;5093362;28;20483;-83
2023/10/08 10:29:20;;;;;;;2.50;0.93;;;21.90;99.90;;;;;;5093269;28;20550;-84
2023/10/08 10:31:49;;;;;;;6.33;1.20;;;21.90;99.90;;;;;;5093531;28;20207;-84
2023/10/08 10:34:17;;;;;;;4.43;1.23;;;22.10;99.90;;;;;;5093470;28;20243;-84
2023/10/08 10:36:48;;;;;;;3.20;1.02;;;22.70;99.90;;;;;;5093505;28;20198;-84
2023/10/08 10:39:25;;;;;;;3.53;1.00;;;23.40;99.90;;;;;;5093523;28;20268;-83
2023/10/08 10:41:57;;;;;;;8.30;3.13;;;24.10;99.90;;;;;;5093098;28;20237;-83
2023/10/08 10:44:24;;;;;;;5.75;1.10;;;24.60;99.60;;;;;;5093712;28;20174;-83
2023/10/08 10:46:51;;;;;;;3.45;1.75;;;24.80;98.60;;;;;;5093442;28;20189;-83
2023/10/08 10:49:18;;;;;;;4.13;1.27;;;24.90;99.20;;;;;;5095307;28;20323;-83
2023/10/08 10:51:47;;;;;;;0.98;0.80;;;24.90;98.90;;;;;;5100107;28;20250;-84
2023/10/08 10:54:20;;;;;;;1.20;1.00;;;24.80;97.40;;;;;;5099725;28;20228;-83
2023/10/08 10:56:47;;;;;;;2.35;0.80;;;24.60;98.00;;;;;;5100371;28;20190;-83
2023/10/08 10:59:18;;;;;;;2.38;1.25;;;24.50;98.80;;;;;;5099753;28;20723;-83
2023/10/08 11:01:52;;;;;;;2.03;0.82;;;24.50;99.20;;;;;;5100910;28;20185;-83
2023/10/08 11:04:19;;;;;;;2.70;0.70;;;24.40;97.90;;;;;;5099731;28;20605;-83
2023/10/08 11:06:48;;;;;;;2.33;1.20;;;24.40;98.40;;;;;;5099951;28;20193;-83
2023/10/08 11:09:31;;;;;;;1.00;0.90;;;24.40;98.10;;;;;;5100001;28;20216;-85
2023/10/08 11:11:59;;;;;;;3.28;1.40;;;24.30;97.40;;;;;;5100124;28;20201;-84
2023/10/08 11:14:27;;;;;;;4.05;1.20;;;24.50;96.80;;;;;;5099720;28;20578;-83
2023/10/08 11:16:54;;;;;;;2.42;1.30;;;24.50;96.70;;;;;;5099876;28;20315;-83
2023/10/08 11:19:20;;;;;;;2.80;1.00;;;24.40;97.20;;;;;;5099591;28;20201;-83
2023/10/08 11:21:51;;;;;;;1.40;1.00;;;24.30;97.30;;;;;;5099865;28;20209;-84
2023/10/08 11:24:33;;;;;;;3.40;1.02;;;24.30;97.10;;;;;;5099802;28;20205;-85
2023/10/08 11:27:15;;;;;;;3.13;1.50;;;24.30;96.50;;;;;;5099897;28;20188;-84
2023/10/08 11:29:43;;;;;;;2.78;0.88;;;24.40;96.10;;;;;;5099503;28;20677;-83
2023/10/08 11:32:12;;;;;;;9.85;0.98;;;24.30;96.20;;;;;;5099771;28;20201;-83
2023/10/08 11:34:39;;;;;;;4.93;1.35;;;24.20;95.90;;;;;;5099726;28;20205;-84
2023/10/08 11:37:19;;;;;;;2.80;0.85;;;24.10;95.90;;;;;;5099776;28;20261;-84
2023/10/08 11:39:48;;;;;;;4.47;1.38;;;24.00;95.80;;;;;;5099999;28;20189;-83
2023/10/08 11:42:40;;;;;;;3.22;1.63;;;24.00;95.50;;;;;;5099099;28;20237;-84
2023/10/08 11:45:18;;;;;;;1.52;1.02;;;24.00;95.70;;;;;;5099733;28;20182;-84
2023/10/08 11:47:48;;;;;;;1.20;1.00;;;23.90;95.90;;;;;;5099670;28;20190;-83
2023/10/08 11:50:19;;;;;;;1.52;1.08;;;23.90;95.40;;;;;;5099731;28;20201;-84
2023/10/08 11:52:46;;;;;;;1.30;0.70;;;23.70;95.50;;;;;;5099220;28;20263;-85
2023/10/08 11:55:18;;;;;;;1.05;0.60;;;23.70;95.00;;;;;;5099547;28;20201;-84
2023/10/08 11:57:48;;;;;;;2.03;0.73;;;23.60;95.50;;;;;;5099592;28;20223;-84
2023/10/08 12:00:24;;;;;;;1.58;0.90;;;23.50;95.90;;;;;;5099603;28;20547;-84
2023/10/08 12:02:54;;;;;;;3.65;1.10;;;23.50;96.00;;;;;;5095894;28;20227;-84
2023/10/08 12:05:23;;;;;;;2.10;1.38;;;23.40;95.90;;;;;;5096313;28;20225;-83
2023/10/08 12:07:51;;;;;;;3.88;0.95;;;23.40;95.20;;;;;;5096189;28;20201;-83
2023/10/08 12:10:22;;;;;;;6.03;1.48;;;23.40;95.70;;;;;;5096233;28;20247;-84
2023/10/08 12:12:52;;;;;;;3.25;1.02;;;23.30;95.90;;;;;;5096181;28;20225;-83
2023/10/08 12:15:19;;;;;;;4.18;1.17;;;23.00;95.50;;;;;;5096334;28;20202;-86
2023/10/08 12:18:08;;;;;;;4.13;1.08;;;23.00;95.90;;;;;;5096886;28;20216;-83
2023/10/08 12:20:37;;;;;;;1.77;1.02;;;22.80;95.80;;;;;;5095733;28;20665;-83
2023/10/08 12:23:05;;;;;;;2.40;0.87;;;22.80;96.40;;;;;;5095963;28;20221;-83
2023/10/08 12:25:33;;;;;;;1.70;0.80;;;22.70;96.60;;;;;;5095718;28;20678;-83
2023/10/08 12:28:03;;;;;;;1.90;0.90;;;22.70;96.00;;;;;;5095624;28;20205;-84
2023/10/08 12:30:41;;;;;;;2.60;0.80;;;22.60;96.20;;;;;;5095696;28;20275;-83
2023/10/08 12:33:12;;;;;;;4.73;1.30;;;22.60;96.40;;;;;;5095704;28;20228;-83
2023/10/08 12:35:39;;;;;;;2.17;1.33;;;22.50;96.80;;;;;;5095729;28;20284;-83
2023/10/08 12:38:08;;;;;;;2.60;1.17;;;22.40;97.90;;;;;;5095631;28;20212;-83
2023/10/08 12:40:47;;;;;;;0.80;0.75;;;22.40;97.20;;;;;;5095323;28;20295;-84
2023/10/08 12:43:18;;;;;;;6.80;1.13;;;22.30;98.10;;;;;;5095051;28;20267;-83
2023/10/08 12:45:51;;;;;;;3.47;1.53;;;22.30;98.20;;;;;;5095267;28;20662;-83
2023/10/08 12:48:19;;;;;;;3.07;1.07;;;22.20;98.00;;;;;;5095443;28;20223;-83
2023/10/08 12:50:52;;;;;;;5.13;1.00;;;22.20;98.80;;;;;;5095158;28;20193;-83
2023/10/08 12:53:23;;;;;;;3.50;1.30;;;22.20;98.50;;;;;;5095343;28;20225;-83
2023/10/08 12:55:54;;;;;;;3.17;0.93;;;22.20;97.90;;;;;;5095301;28;20205;-83
2023/10/08 12:58:25;;;;;;;4.90;1.10;;;22.20;98.00;;;;;;5095005;28;20639;-83
2023/10/08 13:00:57;;;;;;;2.57;0.80;;;22.30;97.90;;;;;;5095247;28;20470;-83
2023/10/08 13:03:25;;;;;;;2.53;0.87;;;22.30;98.20;;;;;;5095090;28;20663;-84
2023/10/08 13:05:53;;;;;;;2.33;1.10;;;22.20;98.30;;;;;;5094830;28;20545;-83
2023/10/08 13:08:20;;;;;;;4.43;0.83;;;22.20;98.30;;;;;;5094984;28;20225;-84
2023/10/08 13:10:46;;;;;;;5.40;1.10;;;22.20;97.70;;;;;;5094990;28;20198;-83
2023/10/08 13:13:15;;;;;;;5.13;1.07;;;22.20;97.30;;;;;;5093780;28;20459;-83
2023/10/08 13:15:42;;;;;;;8.10;1.53;;;22.40;97.20;;;;;;5094907;28;20446;-83
2023/10/08 13:18:09;;;;;;;3.13;1.30;;;22.40;97.20;;;;;;5095163;28;20530;-84
2023/10/08 13:20:36;;;;;;;1.83;1.17;;;22.40;96.60;;;;;;5094931;28;20443;-83
2023/10/08 13:23:04;;;;;;;5.50;1.27;;;22.40;96.60;;;;;;5094745;28;20467;-83
2023/10/08 13:25:33;;;;;;;6.63;0.90;;;22.30;97.10;;;;;;5094748;28;20487;-83
2023/10/08 13:28:00;;;;;;;6.00;1.03;;;22.20;97.80;;;;;;5095031;28;20202;-83